sensor_id;sensor_type;location;lat;lon;timestamp;P1;durP1;ratioP1;P2;durP2;ratioP2
50968;SDS011;36982;51.474;7.228;2023-04-06T00:01:40;9.00;;;6.00;;
50968;SDS011;36982;51.474;7.228;2023-04-06T00:04:06;8.93;;;5.50;;
50968;SDS011;36982;51.474;7.228;2023-04-06T00:06:32;8.10;;;5.07;;
50968;SDS011;36982;51.474;7.228;2023-04-06T00:08:58;8.50;;;5.53;;
50968;SDS011;36982;51.474;7.228;2023-04-06T00:11:25;9.90;;;5.70;;
50968;SDS011;36982;51.474;7.228;2023-04-06T00:13:50;8.20;;;5.20;;
50968;SDS011;36982;51.474;7.228;2023-04-06T00:16:16;8.00;;;5.60;;
50968;SDS011;36982;51.474;7.228;2023-04-06T00:18:42;7.33;;;5.40;;
50968;SDS011;36982;51.474;7.228;2023-04-06T00:21:07;7.93;;;5.53;;
50968;SDS011;36982;51.474;7.228;2023-04-06T00:23:36;7.83;;;5.30;;
50968;SDS011;36982;51.474;7.228;2023-04-06T00:26:01;9.13;;;5.67;;
50968;SDS011;36982;51.474;7.228;2023-04-06T00:28:27;8.17;;;5.60;;
50968;SDS011;36982;51.474;7.228;2023-04-06T00:30:54;8.33;;;5.03;;
50968;SDS011;36982;51.474;7.228;2023-04-06T00:33:20;10.50;;;5.83;;
50968;SDS011;36982;51.474;7.228;2023-04-06T00:35:47;7.30;;;5.33;;
50968;SDS011;36982;51.474;7.228;2023-04-06T00:38:13;9.50;;;5.60;;
50968;SDS011;36982;51.474;7.228;2023-04-06T00:40:39;8.10;;;5.13;;
50968;SDS011;36982;51.474;7.228;2023-04-06T00:43:05;7.63;;;5.07;;
50968;SDS011;36982;51.474;7.228;2023-04-06T00:45:32;7.67;;;5.57;;
50968;SDS011;36982;51.474;7.228;2023-04-06T00:47:58;8.93;;;5.23;;
50968;SDS011;36982;51.474;7.228;2023-04-06T00:50:24;9.43;;;5.43;;
50968;SDS011;36982;51.474;7.228;2023-04-06T00:52:50;9.47;;;5.67;;
50968;SDS011;36982;51.474;7.228;2023-04-06T00:55:16;7.17;;;5.10;;
50968;SDS011;36982;51.474;7.228;2023-04-06T00:57:42;8.93;;;5.37;;
50968;SDS011;36982;51.474;7.228;2023-04-06T01:00:08;7.70;;;5.60;;
50968;SDS011;36982;51.474;7.228;2023-04-06T01:02:34;8.53;;;5.73;;
50968;SDS011;36982;51.474;7.228;2023-04-06T01:05:01;11.77;;;5.53;;
50968;SDS011;36982;51.474;7.228;2023-04-06T01:07:26;8.73;;;5.60;;
50968;SDS011;36982;51.474;7.228;2023-04-06T01:09:55;10.73;;;5.43;;
50968;SDS011;36982;51.474;7.228;2023-04-06T01:12:20;8.67;;;5.60;;
50968;SDS011;36982;51.474;7.228;2023-04-06T01:14:46;9.77;;;5.30;;
50968;SDS011;36982;51.474;7.228;2023-04-06T01:17:12;7.93;;;5.60;;
50968;SDS011;36982;51.474;7.228;2023-04-06T01:19:38;8.37;;;5.20;;
50968;SDS011;36982;51.474;7.228;2023-04-06T01:22:05;12.37;;;5.53;;
50968;SDS011;36982;51.474;7.228;2023-04-06T01:24:31;8.10;;;5.50;;
50968;SDS011;36982;51.474;7.228;2023-04-06T01:26:57;8.90;;;5.07;;
50968;SDS011;36982;51.474;7.228;2023-04-06T01:29:23;6.97;;;4.80;;
50968;SDS011;36982;51.474;7.228;2023-04-06T01:31:49;8.57;;;5.20;;
50968;SDS011;36982;51.474;7.228;2023-04-06T01:34:15;10.93;;;5.37;;
50968;SDS011;36982;51.474;7.228;2023-04-06T01:36:41;7.47;;;5.43;;
50968;SDS011;36982;51.474;7.228;2023-04-06T01:39:10;7.90;;;4.93;;
50968;SDS011;36982;51.474;7.228;2023-04-06T01:41:35;8.77;;;5.60;;
50968;SDS011;36982;51.474;7.228;2023-04-06T01:44:01;8.77;;;5.30;;
50968;SDS011;36982;51.474;7.228;2023-04-06T01:46:27;8.33;;;5.33;;
50968;SDS011;36982;51.474;7.228;2023-04-06T01:48:53;7.17;;;5.17;;
50968;SDS011;36982;51.474;7.228;2023-04-06T01:51:18;7.93;;;4.97;;
50968;SDS011;36982;51.474;7.228;2023-04-06T01:53:44;7.37;;;5.23;;
50968;SDS011;36982;51.474;7.228;2023-04-06T01:56:10;8.23;;;4.53;;
50968;SDS011;36982;51.474;7.228;2023-04-06T01:58:36;6.80;;;4.80;;
50968;SDS011;36982;51.474;7.228;2023-04-06T02:01:01;6.47;;;4.90;;
50968;SDS011;36982;51.474;7.228;2023-04-06T02:03:27;7.73;;;4.80;;
50968;SDS011;36982;51.474;7.228;2023-04-06T02:05:52;9.60;;;5.00;;
50968;SDS011;36982;51.474;7.228;2023-04-06T02:08:18;7.67;;;4.93;;
50968;SDS011;36982;51.474;7.228;2023-04-06T02:10:44;7.60;;;5.30;;
50968;SDS011;36982;51.474;7.228;2023-04-06T02:13:09;8.07;;;4.77;;
50968;SDS011;36982;51.474;7.228;2023-04-06T02:15:35;7.13;;;5.10;;
50968;SDS011;36982;51.474;7.228;2023-04-06T02:18:01;7.63;;;4.50;;
50968;SDS011;36982;51.474;7.228;2023-04-06T02:20:26;6.60;;;4.80;;
50968;SDS011;36982;51.474;7.228;2023-04-06T02:22:52;5.50;;;4.60;;
50968;SDS011;36982;51.474;7.228;2023-04-06T02:25:18;7.90;;;5.50;;
50968;SDS011;36982;51.474;7.228;2023-04-06T02:27:43;8.27;;;4.53;;
50968;SDS011;36982;51.474;7.228;2023-04-06T02:30:09;7.83;;;4.47;;
50968;SDS011;36982;51.474;7.228;2023-04-06T02:32:35;6.87;;;4.73;;
50968;SDS011;36982;51.474;7.228;2023-04-06T02:35:01;7.13;;;4.67;;
50968;SDS011;36982;51.474;7.228;2023-04-06T02:37:26;6.20;;;4.50;;
50968;SDS011;36982;51.474;7.228;2023-04-06T02:39:52;7.40;;;4.20;;
50968;SDS011;36982;51.474;7.228;2023-04-06T02:42:17;6.17;;;4.40;;
50968;SDS011;36982;51.474;7.228;2023-04-06T02:44:43;6.07;;;4.57;;
50968;SDS011;36982;51.474;7.228;2023-04-06T02:47:09;6.83;;;4.53;;
50968;SDS011;36982;51.474;7.228;2023-04-06T02:49:35;8.07;;;4.50;;
50968;SDS011;36982;51.474;7.228;2023-04-06T02:52:01;6.43;;;4.57;;
50968;SDS011;36982;51.474;7.228;2023-04-06T02:54:27;6.17;;;4.40;;
50968;SDS011;36982;51.474;7.228;2023-04-06T02:56:53;6.93;;;4.33;;
50968;SDS011;36982;51.474;7.228;2023-04-06T02:59:18;6.63;;;4.80;;
50968;SDS011;36982;51.474;7.228;2023-04-06T03:01:44;6.23;;;4.40;;
50968;SDS011;36982;51.474;7.228;2023-04-06T03:04:10;7.37;;;4.50;;
50968;SDS011;36982;51.474;7.228;2023-04-06T03:06:36;7.43;;;4.80;;
50968;SDS011;36982;51.474;7.228;2023-04-06T03:09:01;6.93;;;4.37;;
50968;SDS011;36982;51.474;7.228;2023-04-06T03:11:27;6.43;;;4.13;;
50968;SDS011;36982;51.474;7.228;2023-04-06T03:13:53;7.77;;;4.17;;
50968;SDS011;36982;51.474;7.228;2023-04-06T03:16:18;7.07;;;4.23;;
50968;SDS011;36982;51.474;7.228;2023-04-06T03:18:44;7.33;;;5.00;;
50968;SDS011;36982;51.474;7.228;2023-04-06T03:21:11;8.07;;;4.40;;
50968;SDS011;36982;51.474;7.228;2023-04-06T03:23:37;8.20;;;4.80;;
50968;SDS011;36982;51.474;7.228;2023-04-06T03:26:03;8.23;;;4.90;;
50968;SDS011;36982;51.474;7.228;2023-04-06T03:28:29;7.97;;;4.47;;
50968;SDS011;36982;51.474;7.228;2023-04-06T03:30:55;6.13;;;4.50;;
50968;SDS011;36982;51.474;7.228;2023-04-06T03:33:20;6.27;;;4.77;;
50968;SDS011;36982;51.474;7.228;2023-04-06T03:35:46;6.20;;;4.73;;
50968;SDS011;36982;51.474;7.228;2023-04-06T03:38:12;9.07;;;4.93;;
50968;SDS011;36982;51.474;7.228;2023-04-06T03:40:37;6.77;;;4.83;;
50968;SDS011;36982;51.474;7.228;2023-04-06T03:43:03;9.77;;;5.43;;
50968;SDS011;36982;51.474;7.228;2023-04-06T03:45:29;7.77;;;5.30;;
50968;SDS011;36982;51.474;7.228;2023-04-06T03:47:55;8.43;;;5.43;;
50968;SDS011;36982;51.474;7.228;2023-04-06T03:50:21;9.83;;;5.73;;
50968;SDS011;36982;51.474;7.228;2023-04-06T03:52:46;8.03;;;4.53;;
50968;SDS011;36982;51.474;7.228;2023-04-06T03:55:12;8.10;;;4.93;;
50968;SDS011;36982;51.474;7.228;2023-04-06T03:57:37;7.53;;;4.77;;
50968;SDS011;36982;51.474;7.228;2023-04-06T04:00:03;7.40;;;4.73;;
50968;SDS011;36982;51.474;7.228;2023-04-06T04:02:29;6.37;;;4.50;;
50968;SDS011;36982;51.474;7.228;2023-04-06T04:04:55;7.53;;;4.90;;
50968;SDS011;36982;51.474;7.228;2023-04-06T04:07:21;7.67;;;4.53;;
50968;SDS011;36982;51.474;7.228;2023-04-06T04:09:46;7.90;;;4.50;;
50968;SDS011;36982;51.474;7.228;2023-04-06T04:12:12;8.20;;;4.40;;
50968;SDS011;36982;51.474;7.228;2023-04-06T04:14:39;7.70;;;4.90;;
50968;SDS011;36982;51.474;7.228;2023-04-06T04:17:05;7.40;;;5.10;;
50968;SDS011;36982;51.474;7.228;2023-04-06T04:19:30;9.37;;;4.80;;
50968;SDS011;36982;51.474;7.228;2023-04-06T04:21:56;8.73;;;4.53;;
50968;SDS011;36982;51.474;7.228;2023-04-06T04:24:22;7.67;;;4.70;;
50968;SDS011;36982;51.474;7.228;2023-04-06T04:26:47;6.23;;;4.20;;
50968;SDS011;36982;51.474;7.228;2023-04-06T04:29:13;6.93;;;4.70;;
50968;SDS011;36982;51.474;7.228;2023-04-06T04:31:38;7.73;;;4.83;;
50968;SDS011;36982;51.474;7.228;2023-04-06T04:34:04;8.00;;;5.20;;
50968;SDS011;36982;51.474;7.228;2023-04-06T04:36:31;6.27;;;4.27;;
50968;SDS011;36982;51.474;7.228;2023-04-06T04:38:57;5.37;;;4.50;;
50968;SDS011;36982;51.474;7.228;2023-04-06T04:41:23;7.33;;;4.90;;
50968;SDS011;36982;51.474;7.228;2023-04-06T04:43:48;6.80;;;4.80;;
50968;SDS011;36982;51.474;7.228;2023-04-06T04:46:14;8.23;;;4.97;;
50968;SDS011;36982;51.474;7.228;2023-04-06T04:48:40;7.43;;;4.57;;
50968;SDS011;36982;51.474;7.228;2023-04-06T04:51:06;6.03;;;4.47;;
50968;SDS011;36982;51.474;7.228;2023-04-06T04:53:31;6.93;;;4.77;;
50968;SDS011;36982;51.474;7.228;2023-04-06T04:55:57;7.50;;;4.60;;
50968;SDS011;36982;51.474;7.228;2023-04-06T04:58:23;7.90;;;4.60;;
50968;SDS011;36982;51.474;7.228;2023-04-06T05:00:48;6.00;;;4.20;;
50968;SDS011;36982;51.474;7.228;2023-04-06T05:03:17;6.97;;;4.70;;
50968;SDS011;36982;51.474;7.228;2023-04-06T05:05:45;6.07;;;4.70;;
50968;SDS011;36982;51.474;7.228;2023-04-06T05:08:11;7.57;;;4.80;;
50968;SDS011;36982;51.474;7.228;2023-04-06T05:10:37;7.70;;;5.00;;
50968;SDS011;36982;51.474;7.228;2023-04-06T05:13:03;5.93;;;4.33;;
50968;SDS011;36982;51.474;7.228;2023-04-06T05:15:28;7.20;;;4.67;;
50968;SDS011;36982;51.474;7.228;2023-04-06T05:17:54;6.50;;;4.30;;
50968;SDS011;36982;51.474;7.228;2023-04-06T05:20:20;6.30;;;4.30;;
50968;SDS011;36982;51.474;7.228;2023-04-06T05:22:46;8.40;;;4.57;;
50968;SDS011;36982;51.474;7.228;2023-04-06T05:25:12;7.03;;;4.33;;
50968;SDS011;36982;51.474;7.228;2023-04-06T05:27:38;7.53;;;5.03;;
50968;SDS011;36982;51.474;7.228;2023-04-06T05:30:04;9.80;;;5.10;;
50968;SDS011;36982;51.474;7.228;2023-04-06T05:32:31;5.67;;;4.20;;
50968;SDS011;36982;51.474;7.228;2023-04-06T05:34:56;7.13;;;5.20;;
50968;SDS011;36982;51.474;7.228;2023-04-06T05:37:22;7.13;;;4.67;;
50968;SDS011;36982;51.474;7.228;2023-04-06T05:39:48;10.37;;;5.13;;
50968;SDS011;36982;51.474;7.228;2023-04-06T05:42:13;7.40;;;4.57;;
50968;SDS011;36982;51.474;7.228;2023-04-06T05:44:40;6.80;;;4.73;;
50968;SDS011;36982;51.474;7.228;2023-04-06T05:47:05;9.57;;;4.30;;
50968;SDS011;36982;51.474;7.228;2023-04-06T05:49:31;5.70;;;4.70;;
50968;SDS011;36982;51.474;7.228;2023-04-06T05:51:57;7.57;;;4.90;;
50968;SDS011;36982;51.474;7.228;2023-04-06T05:54:22;9.03;;;4.60;;
50968;SDS011;36982;51.474;7.228;2023-04-06T05:56:48;6.40;;;4.57;;
50968;SDS011;36982;51.474;7.228;2023-04-06T05:59:13;6.67;;;4.33;;
50968;SDS011;36982;51.474;7.228;2023-04-06T06:01:40;7.37;;;4.60;;
50968;SDS011;36982;51.474;7.228;2023-04-06T06:04:06;7.30;;;4.83;;
50968;SDS011;36982;51.474;7.228;2023-04-06T06:06:31;6.93;;;4.57;;
50968;SDS011;36982;51.474;7.228;2023-04-06T06:08:57;6.93;;;4.17;;
50968;SDS011;36982;51.474;7.228;2023-04-06T06:11:26;5.07;;;4.00;;
50968;SDS011;36982;51.474;7.228;2023-04-06T06:13:52;6.20;;;4.23;;
50968;SDS011;36982;51.474;7.228;2023-04-06T06:16:18;6.37;;;4.23;;
50968;SDS011;36982;51.474;7.228;2023-04-06T06:18:44;8.03;;;4.70;;
50968;SDS011;36982;51.474;7.228;2023-04-06T06:21:10;6.50;;;4.30;;
50968;SDS011;36982;51.474;7.228;2023-04-06T06:23:39;6.90;;;4.13;;
50968;SDS011;36982;51.474;7.228;2023-04-06T06:26:04;7.00;;;4.47;;
50968;SDS011;36982;51.474;7.228;2023-04-06T06:28:30;7.97;;;4.20;;
50968;SDS011;36982;51.474;7.228;2023-04-06T06:30:56;10.50;;;4.73;;
50968;SDS011;36982;51.474;7.228;2023-04-06T06:33:23;8.13;;;4.30;;
50968;SDS011;36982;51.474;7.228;2023-04-06T06:35:49;8.50;;;3.97;;
50968;SDS011;36982;51.474;7.228;2023-04-06T06:38:16;7.60;;;3.93;;
50968;SDS011;36982;51.474;7.228;2023-04-06T06:40:42;7.40;;;4.20;;
50968;SDS011;36982;51.474;7.228;2023-04-06T06:43:08;7.23;;;4.00;;
50968;SDS011;36982;51.474;7.228;2023-04-06T06:45:33;6.77;;;4.17;;
50968;SDS011;36982;51.474;7.228;2023-04-06T06:47:59;4.63;;;3.60;;
50968;SDS011;36982;51.474;7.228;2023-04-06T06:50:25;7.60;;;4.40;;
50968;SDS011;36982;51.474;7.228;2023-04-06T06:52:50;5.23;;;3.83;;
50968;SDS011;36982;51.474;7.228;2023-04-06T06:55:16;9.00;;;4.17;;
50968;SDS011;36982;51.474;7.228;2023-04-06T06:57:44;6.03;;;4.03;;
50968;SDS011;36982;51.474;7.228;2023-04-06T07:00:11;7.60;;;4.50;;
50968;SDS011;36982;51.474;7.228;2023-04-06T07:02:38;8.27;;;4.30;;
50968;SDS011;36982;51.474;7.228;2023-04-06T07:05:05;9.37;;;4.50;;
50968;SDS011;36982;51.474;7.228;2023-04-06T07:07:34;6.23;;;4.33;;
50968;SDS011;36982;51.474;7.228;2023-04-06T07:10:00;7.97;;;4.63;;
50968;SDS011;36982;51.474;7.228;2023-04-06T07:12:26;5.03;;;3.90;;
50968;SDS011;36982;51.474;7.228;2023-04-06T07:14:52;12.53;;;4.47;;
50968;SDS011;36982;51.474;7.228;2023-04-06T07:17:18;7.97;;;4.70;;
50968;SDS011;36982;51.474;7.228;2023-04-06T07:19:43;8.63;;;4.70;;
50968;SDS011;36982;51.474;7.228;2023-04-06T07:22:10;7.93;;;4.57;;
50968;SDS011;36982;51.474;7.228;2023-04-06T07:24:36;6.80;;;4.20;;
50968;SDS011;36982;51.474;7.228;2023-04-06T07:27:01;6.53;;;3.97;;
50968;SDS011;36982;51.474;7.228;2023-04-06T07:29:27;7.17;;;4.10;;
50968;SDS011;36982;51.474;7.228;2023-04-06T07:31:53;8.30;;;4.70;;
50968;SDS011;36982;51.474;7.228;2023-04-06T07:34:19;6.37;;;4.60;;
50968;SDS011;36982;51.474;7.228;2023-04-06T07:36:45;6.37;;;4.70;;
50968;SDS011;36982;51.474;7.228;2023-04-06T07:39:11;7.90;;;4.50;;
50968;SDS011;36982;51.474;7.228;2023-04-06T07:41:37;7.10;;;5.00;;
50968;SDS011;36982;51.474;7.228;2023-04-06T07:44:03;10.07;;;4.40;;
50968;SDS011;36982;51.474;7.228;2023-04-06T07:46:29;9.27;;;4.63;;
50968;SDS011;36982;51.474;7.228;2023-04-06T07:48:59;8.80;;;5.30;;
50968;SDS011;36982;51.474;7.228;2023-04-06T07:51:25;8.13;;;5.07;;
50968;SDS011;36982;51.474;7.228;2023-04-06T07:53:52;6.40;;;4.87;;
50968;SDS011;36982;51.474;7.228;2023-04-06T07:56:18;7.00;;;5.30;;
50968;SDS011;36982;51.474;7.228;2023-04-06T07:58:43;9.40;;;5.43;;
50968;SDS011;36982;51.474;7.228;2023-04-06T08:01:09;6.67;;;4.83;;
50968;SDS011;36982;51.474;7.228;2023-04-06T08:03:35;7.33;;;5.70;;
50968;SDS011;36982;51.474;7.228;2023-04-06T08:06:01;7.97;;;5.20;;
50968;SDS011;36982;51.474;7.228;2023-04-06T08:08:27;7.67;;;4.90;;
50968;SDS011;36982;51.474;7.228;2023-04-06T08:10:53;8.63;;;5.00;;
50968;SDS011;36982;51.474;7.228;2023-04-06T08:13:19;6.43;;;5.00;;
50968;SDS011;36982;51.474;7.228;2023-04-06T08:15:45;8.33;;;4.97;;
50968;SDS011;36982;51.474;7.228;2023-04-06T08:18:11;7.70;;;5.63;;
50968;SDS011;36982;51.474;7.228;2023-04-06T08:20:37;8.30;;;4.90;;
50968;SDS011;36982;51.474;7.228;2023-04-06T08:23:02;7.90;;;5.33;;
50968;SDS011;36982;51.474;7.228;2023-04-06T08:25:28;6.87;;;4.70;;
50968;SDS011;36982;51.474;7.228;2023-04-06T08:27:54;7.37;;;5.37;;
50968;SDS011;36982;51.474;7.228;2023-04-06T08:30:20;7.40;;;5.33;;
50968;SDS011;36982;51.474;7.228;2023-04-06T08:32:46;7.13;;;5.70;;
50968;SDS011;36982;51.474;7.228;2023-04-06T08:35:12;11.43;;;5.23;;
50968;SDS011;36982;51.474;7.228;2023-04-06T08:37:37;7.03;;;5.03;;
50968;SDS011;36982;51.474;7.228;2023-04-06T08:40:03;8.10;;;5.53;;
50968;SDS011;36982;51.474;7.228;2023-04-06T08:42:32;9.43;;;6.10;;
50968;SDS011;36982;51.474;7.228;2023-04-06T08:44:58;9.40;;;5.20;;
50968;SDS011;36982;51.474;7.228;2023-04-06T08:47:25;8.43;;;5.63;;
50968;SDS011;36982;51.474;7.228;2023-04-06T08:49:51;8.27;;;6.03;;
50968;SDS011;36982;51.474;7.228;2023-04-06T08:52:18;8.70;;;5.80;;
50968;SDS011;36982;51.474;7.228;2023-04-06T08:54:44;8.63;;;5.93;;
50968;SDS011;36982;51.474;7.228;2023-04-06T08:57:10;8.53;;;6.07;;
50968;SDS011;36982;51.474;7.228;2023-04-06T08:59:37;10.20;;;6.00;;
50968;SDS011;36982;51.474;7.228;2023-04-06T09:02:04;9.40;;;6.50;;
50968;SDS011;36982;51.474;7.228;2023-04-06T09:04:32;10.63;;;6.77;;
50968;SDS011;36982;51.474;7.228;2023-04-06T09:06:59;9.53;;;6.40;;
50968;SDS011;36982;51.474;7.228;2023-04-06T09:09:25;10.67;;;6.80;;
50968;SDS011;36982;51.474;7.228;2023-04-06T09:11:51;8.37;;;6.13;;
50968;SDS011;36982;51.474;7.228;2023-04-06T09:14:29;10.50;;;6.67;;
50968;SDS011;36982;51.474;7.228;2023-04-06T09:16:59;10.60;;;7.50;;
50968;SDS011;36982;51.474;7.228;2023-04-06T09:19:25;10.93;;;7.20;;
50968;SDS011;36982;51.474;7.228;2023-04-06T09:22:00;9.27;;;6.77;;
50968;SDS011;36982;51.474;7.228;2023-04-06T09:24:38;9.73;;;7.30;;
50968;SDS011;36982;51.474;7.228;2023-04-06T09:27:08;9.90;;;7.07;;
50968;SDS011;36982;51.474;7.228;2023-04-06T09:29:34;10.57;;;7.03;;
50968;SDS011;36982;51.474;7.228;2023-04-06T09:32:05;10.90;;;7.43;;
50968;SDS011;36982;51.474;7.228;2023-04-06T09:34:32;10.90;;;7.50;;
50968;SDS011;36982;51.474;7.228;2023-04-06T09:36:59;10.33;;;7.50;;
50968;SDS011;36982;51.474;7.228;2023-04-06T09:39:25;13.70;;;8.30;;
50968;SDS011;36982;51.474;7.228;2023-04-06T09:41:51;13.03;;;8.50;;
50968;SDS011;36982;51.474;7.228;2023-04-06T09:44:18;12.17;;;8.13;;
50968;SDS011;36982;51.474;7.228;2023-04-06T09:46:45;12.57;;;8.23;;
50968;SDS011;36982;51.474;7.228;2023-04-06T09:49:12;12.57;;;8.20;;
50968;SDS011;36982;51.474;7.228;2023-04-06T09:51:39;13.83;;;8.17;;
50968;SDS011;36982;51.474;7.228;2023-04-06T09:54:08;13.63;;;8.20;;
50968;SDS011;36982;51.474;7.228;2023-04-06T09:56:44;12.13;;;8.47;;
50968;SDS011;36982;51.474;7.228;2023-04-06T09:59:13;16.10;;;8.13;;
50968;SDS011;36982;51.474;7.228;2023-04-06T10:01:41;15.10;;;8.17;;
50968;SDS011;36982;51.474;7.228;2023-04-06T10:04:10;12.97;;;7.77;;
50968;SDS011;36982;51.474;7.228;2023-04-06T10:06:46;12.57;;;7.93;;
50968;SDS011;36982;51.474;7.228;2023-04-06T10:09:17;11.30;;;8.03;;
50968;SDS011;36982;51.474;7.228;2023-04-06T10:11:47;14.13;;;8.97;;
50968;SDS011;36982;51.474;7.228;2023-04-06T10:14:14;13.53;;;8.67;;
50968;SDS011;36982;51.474;7.228;2023-04-06T10:16:41;14.03;;;9.00;;
50968;SDS011;36982;51.474;7.228;2023-04-06T10:19:13;12.67;;;8.97;;
50968;SDS011;36982;51.474;7.228;2023-04-06T10:21:44;14.73;;;9.83;;
50968;SDS011;36982;51.474;7.228;2023-04-06T10:24:15;14.63;;;10.20;;
50968;SDS011;36982;51.474;7.228;2023-04-06T10:26:42;17.30;;;11.30;;
50968;SDS011;36982;51.474;7.228;2023-04-06T10:29:07;12.40;;;8.87;;
50968;SDS011;36982;51.474;7.228;2023-04-06T10:31:39;13.60;;;9.70;;
50968;SDS011;36982;51.474;7.228;2023-04-06T10:34:07;17.07;;;9.70;;
50968;SDS011;36982;51.474;7.228;2023-04-06T10:36:33;12.80;;;9.10;;
50968;SDS011;36982;51.474;7.228;2023-04-06T10:39:00;14.20;;;10.40;;
50968;SDS011;36982;51.474;7.228;2023-04-06T10:41:34;15.60;;;10.13;;
50968;SDS011;36982;51.474;7.228;2023-04-06T10:44:01;14.80;;;9.63;;
50968;SDS011;36982;51.474;7.228;2023-04-06T10:46:29;14.83;;;9.87;;
50968;SDS011;36982;51.474;7.228;2023-04-06T10:48:56;15.77;;;10.23;;
50968;SDS011;36982;51.474;7.228;2023-04-06T10:51:27;18.03;;;11.83;;
50968;SDS011;36982;51.474;7.228;2023-04-06T10:53:54;16.13;;;11.03;;
50968;SDS011;36982;51.474;7.228;2023-04-06T10:56:23;17.23;;;10.83;;
50968;SDS011;36982;51.474;7.228;2023-04-06T10:58:53;15.70;;;11.23;;
50968;SDS011;36982;51.474;7.228;2023-04-06T11:01:23;15.47;;;10.07;;
50968;SDS011;36982;51.474;7.228;2023-04-06T11:03:52;16.13;;;11.47;;
50968;SDS011;36982;51.474;7.228;2023-04-06T11:06:25;17.27;;;10.63;;
50968;SDS011;36982;51.474;7.228;2023-04-06T11:08:54;15.90;;;11.80;;
50968;SDS011;36982;51.474;7.228;2023-04-06T11:11:21;18.43;;;11.73;;
50968;SDS011;36982;51.474;7.228;2023-04-06T11:16:14;15.27;;;10.87;;
50968;SDS011;36982;51.474;7.228;2023-04-06T11:19:01;17.23;;;12.73;;
50968;SDS011;36982;51.474;7.228;2023-04-06T11:21:31;16.40;;;11.73;;
50968;SDS011;36982;51.474;7.228;2023-04-06T11:26:31;16.30;;;12.13;;
50968;SDS011;36982;51.474;7.228;2023-04-06T11:29:01;17.63;;;12.30;;
50968;SDS011;36982;51.474;7.228;2023-04-06T11:31:27;19.83;;;13.20;;
50968;SDS011;36982;51.474;7.228;2023-04-06T11:33:56;18.97;;;14.27;;
50968;SDS011;36982;51.474;7.228;2023-04-06T11:36:22;20.23;;;13.90;;
50968;SDS011;36982;51.474;7.228;2023-04-06T11:38:48;20.23;;;14.17;;
50968;SDS011;36982;51.474;7.228;2023-04-06T11:41:15;17.80;;;13.77;;
50968;SDS011;36982;51.474;7.228;2023-04-06T11:43:46;21.30;;;14.93;;
50968;SDS011;36982;51.474;7.228;2023-04-06T11:46:16;20.83;;;13.57;;
50968;SDS011;36982;51.474;7.228;2023-04-06T11:48:44;17.40;;;13.40;;
50968;SDS011;36982;51.474;7.228;2023-04-06T11:51:11;18.67;;;14.13;;
50968;SDS011;36982;51.474;7.228;2023-04-06T11:53:43;21.90;;;15.13;;
50968;SDS011;36982;51.474;7.228;2023-04-06T11:56:10;16.37;;;12.17;;
50968;SDS011;36982;51.474;7.228;2023-04-06T11:58:36;17.33;;;12.17;;
50968;SDS011;36982;51.474;7.228;2023-04-06T12:01:05;17.20;;;11.53;;
50968;SDS011;36982;51.474;7.228;2023-04-06T12:03:30;13.17;;;10.60;;
50968;SDS011;36982;51.474;7.228;2023-04-06T12:05:56;15.07;;;9.90;;
50968;SDS011;36982;51.474;7.228;2023-04-06T12:08:22;14.60;;;10.20;;
50968;SDS011;36982;51.474;7.228;2023-04-06T12:10:50;12.83;;;9.47;;
50968;SDS011;36982;51.474;7.228;2023-04-06T12:13:16;15.10;;;9.57;;
50968;SDS011;36982;51.474;7.228;2023-04-06T12:15:41;12.57;;;9.23;;
50968;SDS011;36982;51.474;7.228;2023-04-06T12:18:07;13.53;;;9.57;;
50968;SDS011;36982;51.474;7.228;2023-04-06T12:20:33;14.93;;;9.63;;
50968;SDS011;36982;51.474;7.228;2023-04-06T12:22:58;14.27;;;9.50;;
50968;SDS011;36982;51.474;7.228;2023-04-06T12:25:24;14.23;;;9.30;;
50968;SDS011;36982;51.474;7.228;2023-04-06T12:27:50;15.70;;;9.90;;
50968;SDS011;36982;51.474;7.228;2023-04-06T12:30:15;12.90;;;9.20;;
50968;SDS011;36982;51.474;7.228;2023-04-06T12:32:41;17.73;;;10.20;;
50968;SDS011;36982;51.474;7.228;2023-04-06T12:35:07;16.27;;;9.90;;
50968;SDS011;36982;51.474;7.228;2023-04-06T12:37:34;13.73;;;9.40;;
50968;SDS011;36982;51.474;7.228;2023-04-06T12:39:59;13.83;;;9.33;;
50968;SDS011;36982;51.474;7.228;2023-04-06T12:42:25;13.60;;;10.33;;
50968;SDS011;36982;51.474;7.228;2023-04-06T12:44:51;11.60;;;8.90;;
50968;SDS011;36982;51.474;7.228;2023-04-06T12:47:17;13.83;;;9.63;;
50968;SDS011;36982;51.474;7.228;2023-04-06T12:49:43;14.13;;;9.80;;
50968;SDS011;36982;51.474;7.228;2023-04-06T12:52:09;14.63;;;10.10;;
50968;SDS011;36982;51.474;7.228;2023-04-06T12:54:35;15.10;;;10.27;;
50968;SDS011;36982;51.474;7.228;2023-04-06T12:57:01;14.97;;;10.37;;
50968;SDS011;36982;51.474;7.228;2023-04-06T12:59:26;15.10;;;10.30;;
50968;SDS011;36982;51.474;7.228;2023-04-06T13:01:59;14.60;;;10.43;;
50968;SDS011;36982;51.474;7.228;2023-04-06T13:04:25;15.27;;;10.33;;
50968;SDS011;36982;51.474;7.228;2023-04-06T13:06:51;14.23;;;9.80;;
50968;SDS011;36982;51.474;7.228;2023-04-06T13:09:17;17.47;;;9.80;;
50968;SDS011;36982;51.474;7.228;2023-04-06T13:11:42;17.93;;;10.40;;
50968;SDS011;36982;51.474;7.228;2023-04-06T13:14:08;20.90;;;10.73;;
50968;SDS011;36982;51.474;7.228;2023-04-06T13:16:34;17.93;;;10.23;;
50968;SDS011;36982;51.474;7.228;2023-04-06T13:19:01;15.67;;;10.13;;
50968;SDS011;36982;51.474;7.228;2023-04-06T13:21:27;15.10;;;10.43;;
50968;SDS011;36982;51.474;7.228;2023-04-06T13:23:53;14.10;;;9.93;;
50968;SDS011;36982;51.474;7.228;2023-04-06T13:26:18;15.73;;;10.53;;
50968;SDS011;36982;51.474;7.228;2023-04-06T13:28:44;14.33;;;9.80;;
50968;SDS011;36982;51.474;7.228;2023-04-06T13:31:10;15.20;;;9.80;;
50968;SDS011;36982;51.474;7.228;2023-04-06T13:33:36;15.47;;;10.10;;
50968;SDS011;36982;51.474;7.228;2023-04-06T13:36:02;13.13;;;9.57;;
50968;SDS011;36982;51.474;7.228;2023-04-06T13:38:29;13.37;;;9.20;;
50968;SDS011;36982;51.474;7.228;2023-04-06T13:40:55;13.60;;;10.10;;
50968;SDS011;36982;51.474;7.228;2023-04-06T13:43:21;16.77;;;10.87;;
50968;SDS011;36982;51.474;7.228;2023-04-06T13:45:53;15.30;;;9.93;;
50968;SDS011;36982;51.474;7.228;2023-04-06T13:48:20;15.67;;;10.17;;
50968;SDS011;36982;51.474;7.228;2023-04-06T13:50:46;14.17;;;9.73;;
50968;SDS011;36982;51.474;7.228;2023-04-06T13:53:12;14.53;;;9.60;;
50968;SDS011;36982;51.474;7.228;2023-04-06T13:55:38;14.90;;;9.93;;
50968;SDS011;36982;51.474;7.228;2023-04-06T13:58:04;13.90;;;9.80;;
50968;SDS011;36982;51.474;7.228;2023-04-06T14:00:29;16.70;;;9.70;;
50968;SDS011;36982;51.474;7.228;2023-04-06T14:02:55;13.60;;;9.83;;
50968;SDS011;36982;51.474;7.228;2023-04-06T14:05:21;17.23;;;10.47;;
50968;SDS011;36982;51.474;7.228;2023-04-06T14:07:48;15.30;;;8.80;;
50968;SDS011;36982;51.474;7.228;2023-04-06T14:10:14;11.53;;;8.83;;
50968;SDS011;36982;51.474;7.228;2023-04-06T14:12:41;14.67;;;9.30;;
50968;SDS011;36982;51.474;7.228;2023-04-06T14:15:08;11.57;;;8.10;;
50968;SDS011;36982;51.474;7.228;2023-04-06T14:17:34;11.57;;;7.87;;
50968;SDS011;36982;51.474;7.228;2023-04-06T14:20:00;11.60;;;7.73;;
50968;SDS011;36982;51.474;7.228;2023-04-06T14:22:25;13.23;;;7.73;;
50968;SDS011;36982;51.474;7.228;2023-04-06T14:24:51;10.50;;;7.53;;
50968;SDS011;36982;51.474;7.228;2023-04-06T14:27:16;11.03;;;7.80;;
50968;SDS011;36982;51.474;7.228;2023-04-06T14:29:42;11.73;;;7.17;;
50968;SDS011;36982;51.474;7.228;2023-04-06T14:32:08;9.37;;;7.23;;
50968;SDS011;36982;51.474;7.228;2023-04-06T14:34:33;12.40;;;7.80;;
50968;SDS011;36982;51.474;7.228;2023-04-06T14:37:02;14.37;;;8.23;;
50968;SDS011;36982;51.474;7.228;2023-04-06T14:39:27;13.10;;;8.57;;
50968;SDS011;36982;51.474;7.228;2023-04-06T14:41:53;15.17;;;9.33;;